Time;durP1;ratioP1;P1;durP2;ratioP2;P2;SDS_P1;SDS_P2;PMS_P1;PMS_P2;Temp;Humidity;BMP_temperature;BMP_pressure;BME280_temperature;BME280_humidity;BME280_pressure;Samples;Min_cycle;Max_cycle;Signal;HPM_P1;HPM_P2
2021/10/05 00:02:22;;;;;;;13.75;6.07;;;;;;;15.77;92.23;98816.78;5145341;27;20061;-96
2021/10/05 00:04:49;;;;;;;12.15;6.40;;;;;;;15.82;92.67;98777.22;5146354;27;20051;-96
2021/10/05 00:07:15;;;;;;;13.88;5.93;;;;;;;15.86;91.99;98820.00;5149070;27;20063;-95
2021/10/05 00:09:41;;;;;;;13.05;6.22;;;;;;;15.86;91.63;98836.94;5150452;27;20119;-96
2021/10/05 00:12:09;;;;;;;11.70;5.72;;;;;;;15.90;92.58;98833.16;5142614;27;20051;-96
2021/10/05 00:14:36;;;;;;;11.25;6.35;;;;;;;15.89;92.29;98844.81;5147411;27;20084;-96
2021/10/05 00:17:02;;;;;;;13.35;5.80;;;;;;;16.04;91.33;98858.47;5148160;27;20051;-96
2021/10/05 00:19:29;;;;;;;11.05;5.45;;;;;;;15.97;91.41;98806.94;5141091;27;20039;-96
2021/10/05 00:21:55;;;;;;;11.00;5.50;;;;;;;16.13;90.28;98825.81;5143513;27;20081;-94
2021/10/05 00:24:20;;;;;;;10.95;5.30;;;;;;;15.95;90.13;98798.06;5138869;27;20388;-95
2021/10/05 00:26:46;;;;;;;12.55;4.95;;;;;;;16.06;88.45;98792.19;5137203;27;20054;-96
2021/10/05 00:29:14;;;;;;;13.35;6.22;;;;;;;16.09;89.41;98809.03;5140330;27;20046;-96
2021/10/05 00:31:40;;;;;;;8.55;5.30;;;;;;;16.25;89.83;98805.56;5137921;27;20039;-95
2021/10/05 00:34:06;;;;;;;10.57;5.25;;;;;;;15.90;90.20;98803.66;5140270;27;20039;-96
2021/10/05 00:36:32;;;;;;;10.27;5.43;;;;;;;15.96;91.00;98822.16;5138102;27;20065;-96
2021/10/05 00:38:58;;;;;;;11.48;5.72;;;;;;;15.98;92.93;98804.19;5136878;27;20373;-96
2021/10/05 00:41:23;;;;;;;11.73;5.57;;;;;;;15.99;93.56;98811.25;5137397;27;20039;-96
2021/10/05 00:43:50;;;;;;;11.15;5.53;;;;;;;15.94;94.38;98832.09;5143323;27;20043;-95
2021/10/05 00:46:21;;;;;;;14.52;5.80;;;;;;;15.93;92.92;98816.91;5143424;27;20441;-96
2021/10/05 00:48:47;;;;;;;10.90;5.57;;;;;;;15.86;92.32;98811.94;5139920;27;20039;-96
2021/10/05 00:51:13;;;;;;;14.05;5.70;;;;;;;15.88;92.34;98839.56;5142841;27;20099;-94
2021/10/05 00:53:40;;;;;;;12.13;5.75;;;;;;;15.96;93.69;98799.81;5137132;27;20054;-95
2021/10/05 00:56:09;;;;;;;12.23;5.38;;;;;;;15.82;92.58;98800.47;5141887;27;20381;-95
2021/10/05 00:58:35;;;;;;;13.07;6.30;;;;;;;15.82;92.03;98817.44;5145016;27;20508;-96
2021/10/05 01:01:01;;;;;;;13.32;5.53;;;;;;;15.88;92.62;98749.25;5143233;27;20078;-96
2021/10/05 01:03:29;;;;;;;13.00;5.60;;;;;;;15.78;92.93;98731.84;5144790;27;20068;-95
2021/10/05 01:05:55;;;;;;;12.68;6.20;;;;;;;15.82;91.97;98787.94;5145822;27;20047;-95
2021/10/05 01:08:22;;;;;;;12.52;6.53;;;;;;;15.67;91.88;98818.13;5143733;27;20045;-94
2021/10/05 01:10:49;;;;;;;11.90;6.28;;;;;;;15.74;91.93;98808.00;5141074;27;20157;-94
2021/10/05 01:13:15;;;;;;;13.00;5.95;;;;;;;15.85;93.23;98757.41;5138420;27;20054;-95
2021/10/05 01:15:41;;;;;;;13.57;5.63;;;;;;;15.79;91.72;98707.66;5138097;27;20094;-95
2021/10/05 01:18:07;;;;;;;12.63;5.45;;;;;;;15.74;88.47;98715.06;5141959;27;20071;-95
2021/10/05 01:20:57;;;;;;;12.70;5.20;;;;;;;15.87;91.12;98727.84;5139956;27;20369;-94
2021/10/05 01:23:25;;;;;;;12.23;5.55;;;;;;;15.82;90.06;98730.75;5138073;27;20039;-94
2021/10/05 01:25:52;;;;;;;15.77;6.20;;;;;;;15.84;90.31;98736.06;5143424;27;20427;-95
2021/10/05 01:28:19;;;;;;;11.60;5.80;;;;;;;15.84;89.79;98734.25;5141118;27;20510;-96
2021/10/05 01:30:45;;;;;;;11.02;5.68;;;;;;;15.82;89.70;98715.53;5141832;27;20043;-95
2021/10/05 01:33:11;;;;;;;11.25;5.85;;;;;;;15.72;86.07;98737.50;5143647;27;20035;-95
2021/10/05 01:35:37;;;;;;;9.70;5.13;;;;;;;15.89;88.65;98737.56;5142770;27;20035;-94
2021/10/05 01:38:05;;;;;;;9.60;5.43;;;;;;;15.76;87.56;98686.34;5143187;27;20507;-96
2021/10/05 01:40:31;;;;;;;10.40;5.15;;;;;;;15.84;87.42;98752.16;5142485;27;20039;-94
2021/10/05 01:42:57;;;;;;;11.30;5.32;;;;;;;15.80;88.04;98721.94;5141924;27;20381;-94
2021/10/05 01:45:23;;;;;;;11.45;5.65;;;;;;;15.85;87.79;98746.69;5141460;27;20068;-94
2021/10/05 01:47:49;;;;;;;12.00;5.93;;;;;;;15.78;90.08;98683.59;5141825;27;20088;-95
2021/10/05 01:50:15;;;;;;;13.57;6.50;;;;;;;15.74;89.11;98725.78;5143082;27;20063;-95
2021/10/05 01:52:41;;;;;;;13.57;5.70;;;;;;;15.69;90.22;98679.53;5141331;27;20046;-95
2021/10/05 01:55:09;;;;;;;12.20;6.05;;;;;;;15.67;89.98;98673.38;5142111;27;20047;-95
2021/10/05 01:57:35;;;;;;;13.40;6.30;;;;;;;15.73;89.74;98662.38;5142403;27;20088;-95
2021/10/05 02:00:01;;;;;;;13.38;5.65;;;;;;;15.57;88.98;98661.34;5141306;27;20062;-94
2021/10/05 02:02:27;;;;;;;9.63;5.85;;;;;;;15.59;89.99;98654.09;5140898;27;20504;-95
2021/10/05 02:04:53;;;;;;;12.20;5.90;;;;;;;15.63;89.38;98653.00;5141228;27;20039;-96
2021/10/05 02:07:19;;;;;;;12.30;5.50;;;;;;;15.70;88.57;98681.28;5141094;27;20040;-95
2021/10/05 02:12:46;;;;;;;9.75;5.30;;;;;;;15.71;89.73;98672.31;5135180;27;20853;-95
2021/10/05 02:15:12;;;;;;;11.82;5.88;;;;;;;15.73;90.57;98666.88;5133788;27;20040;-96
2021/10/05 02:17:38;;;;;;;14.00;6.35;;;;;;;15.59;88.24;98673.75;5136657;27;20043;-96
2021/10/05 02:20:06;;;;;;;12.23;6.30;;;;;;;15.55;88.63;98656.09;5135796;27;20096;-94
2021/10/05 02:22:32;;;;;;;11.68;5.93;;;;;;;15.69;89.57;98684.88;5135373;27;20035;-95
2021/10/05 02:24:57;;;;;;;11.98;6.30;;;;;;;15.54;88.95;98654.34;5136227;27;20464;-94
2021/10/05 02:27:23;;;;;;;12.88;6.18;;;;;;;15.67;90.94;98684.09;5135101;27;20043;-94
2021/10/05 02:29:51;;;;;;;14.27;6.15;;;;;;;15.63;91.22;98666.41;5134334;27;20072;-95
2021/10/05 02:32:17;;;;;;;12.88;6.25;;;;;;;15.55;91.53;98648.06;5134094;27;20036;-94
2021/10/05 02:34:44;;;;;;;13.85;6.60;;;;;;;15.68;91.76;98674.22;5133652;27;20061;-94
2021/10/05 02:37:10;;;;;;;12.65;6.60;;;;;;;15.61;92.39;98676.34;5133627;27;20063;-95
2021/10/05 02:39:36;;;;;;;14.35;6.78;;;;;;;15.68;92.57;98684.94;5133946;28;20138;-95
2021/10/05 02:42:03;;;;;;;15.98;6.88;;;;;;;15.59;92.28;98679.13;5133633;27;20067;-95
2021/10/05 02:44:29;;;;;;;16.20;6.70;;;;;;;15.66;92.64;98684.16;5133476;28;20050;-95
2021/10/05 02:46:56;;;;;;;11.73;5.72;;;;;;;15.74;92.82;98693.63;5133886;27;20043;-95
2021/10/05 02:49:22;;;;;;;10.90;5.68;;;;;;;15.70;92.43;98677.69;5133990;27;20045;-95
2021/10/05 02:51:48;;;;;;;11.10;6.10;;;;;;;15.66;92.63;98673.44;5133967;27;20043;-94
2021/10/05 02:54:14;;;;;;;12.38;5.85;;;;;;;15.84;89.25;98696.69;5135798;27;20043;-96
2021/10/05 02:56:40;;;;;;;10.65;5.60;;;;;;;15.84;90.49;98699.38;5134911;27;20054;-95
2021/10/05 02:59:06;;;;;;;12.48;5.70;;;;;;;15.88;89.30;98714.38;5134933;27;20043;-96
2021/10/05 03:01:32;;;;;;;10.73;6.03;;;;;;;15.82;90.62;98714.69;5134720;27;20043;-94
2021/10/05 03:03:59;;;;;;;11.27;5.15;;;;;;;15.98;86.57;98737.13;5138186;27;20040;-94
2021/10/05 03:06:25;;;;;;;11.63;5.85;;;;;;;15.87;86.41;98709.94;5137375;27;20047;-96
2021/10/05 03:08:54;;;;;;;10.10;5.00;;;;;;;15.96;85.08;98711.31;5137961;27;20134;-94
2021/10/05 03:11:21;;;;;;;11.32;5.05;;;;;;;15.90;84.47;98720.53;5136609;27;20520;-95
2021/10/05 03:13:47;;;;;;;12.55;4.78;;;;;;;15.85;85.74;98725.25;5137107;27;20051;-95
2021/10/05 03:16:14;;;;;;;10.20;5.72;;;;;;;15.78;85.16;98722.00;5137401;27;20050;-96
2021/10/05 03:18:41;;;;;;;10.18;5.15;;;;;;;15.75;85.17;98719.47;5137174;27;20104;-96
2021/10/05 03:21:09;;;;;;;11.80;4.75;;;;;;;15.84;86.60;98731.56;5139730;27;20042;-96
2021/10/05 03:23:35;;;;;;;8.05;4.35;;;;;;;15.92;85.53;98731.19;5129577;27;20040;-96
2021/10/05 03:26:04;;;;;;;10.05;4.60;;;;;;;15.80;85.72;98720.09;5127026;28;20044;-96
2021/10/05 03:28:31;;;;;;;10.50;4.57;;;;;;;15.77;85.69;98725.63;5127999;28;20058;-95
2021/10/05 03:30:58;;;;;;;8.23;4.68;;;;;;;15.88;86.40;98748.38;5128462;28;20066;-96
2021/10/05 03:33:25;;;;;;;10.73;4.82;;;;;;;15.72;86.92;98733.03;5130462;27;20044;-96
2021/10/05 03:35:51;;;;;;;10.75;5.10;;;;;;;15.71;87.51;98744.69;5130353;28;20048;-96
2021/10/05 03:38:19;;;;;;;11.82;6.28;;;;;;;15.77;87.82;98756.94;5128484;28;20581;-96
2021/10/05 03:40:46;;;;;;;9.95;5.18;;;;;;;15.82;87.74;98779.03;5129603;28;20103;-96
2021/10/05 03:43:12;;;;;;;11.43;5.18;;;;;;;15.60;88.20;98752.34;5130394;28;20047;-96
2021/10/05 03:45:38;;;;;;;11.60;5.05;;;;;;;15.60;88.68;98755.03;5130130;28;20051;-96
2021/10/05 03:48:04;;;;;;;10.60;4.72;;;;;;;15.56;88.41;98750.75;5128992;28;20070;-96
2021/10/05 03:50:31;;;;;;;10.63;5.55;;;;;;;15.54;88.67;98755.31;5130841;28;20044;-95
2021/10/05 03:52:57;;;;;;;12.88;5.38;;;;;;;15.53;88.66;98757.13;5128857;28;20044;-96
2021/10/05 03:55:25;;;;;;;11.45;4.80;;;;;;;15.47;89.03;98745.84;5129449;27;20062;-95
2021/10/05 03:57:51;;;;;;;12.57;5.75;;;;;;;15.53;89.60;98756.28;5131302;28;20488;-96
2021/10/05 04:00:17;;;;;;;10.27;4.90;;;;;;;15.51;90.16;98740.25;5130152;27;20073;-95
2021/10/05 04:02:43;;;;;;;11.55;5.18;;;;;;;15.49;90.66;98746.66;5129667;28;20095;-96
2021/10/05 04:05:10;;;;;;;9.65;4.82;;;;;;;15.50;90.32;98749.22;5128962;28;20051;-96
2021/10/05 04:07:36;;;;;;;11.77;5.25;;;;;;;15.60;90.31;98763.94;5129886;28;20040;-95
2021/10/05 04:10:03;;;;;;;13.02;5.68;;;;;;;15.60;90.50;98763.06;5129712;28;20043;-95
2021/10/05 04:12:31;;;;;;;10.35;5.22;;;;;;;15.61;90.90;98772.84;5131678;28;20066;-95
2021/10/05 04:14:57;;;;;;;12.82;5.47;;;;;;;15.65;91.04;98779.81;5129746;28;20054;-96
2021/10/05 04:17:23;;;;;;;12.25;4.93;;;;;;;15.65;90.76;98776.25;5130689;28;20131;-96
2021/10/05 04:19:49;;;;;;;10.55;5.30;;;;;;;15.72;90.18;98777.72;5130117;28;20059;-96
2021/10/05 04:22:16;;;;;;;11.40;5.65;;;;;;;15.77;90.89;98787.28;5131563;28;20036;-96
2021/10/05 04:24:43;;;;;;;12.43;5.30;;;;;;;15.64;91.47;98772.72;5131082;28;20035;-96
2021/10/05 04:27:12;;;;;;;8.82;5.40;;;;;;;15.63;91.25;98779.00;5131194;28;20092;-96
2021/10/05 04:29:41;;;;;;;12.38;5.55;;;;;;;15.64;91.67;98798.66;5129534;28;20054;-96
2021/10/05 04:32:09;;;;;;;9.60;4.95;;;;;;;15.56;91.51;98796.31;5129555;28;20066;-96
2021/10/05 04:34:35;;;;;;;9.43;5.07;;;;;;;15.49;92.24;98790.38;5126605;28;20058;-95
2021/10/05 04:37:01;;;;;;;13.02;6.55;;;;;;;15.46;92.56;98795.00;5129504;28;20048;-96
2021/10/05 04:39:28;;;;;;;9.98;5.20;;;;;;;15.38;92.17;98795.38;5129546;28;20051;-96
2021/10/05 04:41:54;;;;;;;12.23;5.53;;;;;;;15.36;91.02;98800.81;5128530;28;20046;-96
2021/10/05 04:44:23;;;;;;;13.55;6.10;;;;;;;15.36;91.59;98810.66;5128466;28;20104;-95
2021/10/05 04:46:51;;;;;;;11.25;5.72;;;;;;;15.30;92.40;98810.94;5128328;28;20042;-96
2021/10/05 04:49:17;;;;;;;13.00;5.65;;;;;;;15.39;92.65;98840.84;5125412;28;20053;-95
2021/10/05 04:51:43;;;;;;;12.20;5.72;;;;;;;15.30;93.38;98819.84;5122221;28;20073;-96
2021/10/05 04:54:09;;;;;;;8.60;5.13;;;;;;;15.35;93.46;98827.66;5124137;28;20040;-96
2021/10/05 04:56:35;;;;;;;12.18;6.40;;;;;;;15.47;93.23;98832.47;5125603;28;20039;-95
2021/10/05 04:59:01;;;;;;;11.07;5.32;;;;;;;15.50;93.07;98828.75;5121366;28;20044;-96
2021/10/05 05:01:27;;;;;;;13.23;5.70;;;;;;;15.51;92.56;98815.31;5122202;28;20046;-96
2021/10/05 05:03:55;;;;;;;11.57;5.82;;;;;;;15.65;91.15;98829.88;5121785;28;20043;-96
2021/10/05 05:06:21;;;;;;;15.38;5.65;;;;;;;15.63;89.05;98823.72;5123620;28;20493;-95
2021/10/05 05:08:47;;;;;;;11.82;5.10;;;;;;;15.71;88.71;98832.28;5124237;28;20142;-95
2021/10/05 05:11:13;;;;;;;12.20;5.53;;;;;;;15.76;88.48;98849.03;5119967;28;20505;-95
2021/10/05 05:13:39;;;;;;;14.52;5.70;;;;;;;15.68;88.80;98825.25;5120787;27;20044;-95
2021/10/05 05:16:05;;;;;;;10.52;6.13;;;;;;;15.75;89.23;98837.44;5119471;28;20043;-96
2021/10/05 05:18:31;;;;;;;8.90;5.18;;;;;;;15.73;88.95;98842.00;5119126;28;20051;-95
2021/10/05 05:20:58;;;;;;;10.85;5.05;;;;;;;15.87;86.57;98861.94;5118523;28;20058;-96
2021/10/05 05:23:24;;;;;;;9.77;5.00;;;;;;;15.80;85.27;98856.84;5115878;28;20096;-96
2021/10/05 05:25:50;;;;;;;11.82;5.20;;;;;;;15.80;86.89;98856.00;5116622;28;20067;-96
2021/10/05 05:28:16;;;;;;;11.55;4.97;;;;;;;15.80;87.08;98853.31;5116843;28;20054;-95
2021/10/05 05:30:42;;;;;;;10.95;5.00;;;;;;;15.80;85.41;98847.94;5117167;28;20046;-95
2021/10/05 05:33:08;;;;;;;8.82;4.75;;;;;;;15.79;83.94;98843.53;5117309;28;20040;-94
2021/10/05 05:35:33;;;;;;;13.98;5.18;;;;;;;16.00;83.83;98871.13;5115659;28;20040;-95
2021/10/05 05:38:01;;;;;;;8.95;5.22;;;;;;;16.00;83.65;98873.81;5116514;28;20116;-95
2021/10/05 05:40:27;;;;;;;15.27;5.63;;;;;;;16.03;82.35;98868.31;5116089;28;20054;-95
2021/10/05 05:42:53;;;;;;;11.32;5.05;;;;;;;16.00;81.90;98849.69;5116382;28;20044;-92
2021/10/05 05:45:19;;;;;;;11.70;5.55;;;;;;;16.18;81.21;98864.03;5112574;28;20036;-94
2021/10/05 05:47:44;;;;;;;13.93;5.75;;;;;;;16.21;81.08;98872.78;5114553;28;20036;-92
2021/10/05 05:50:10;;;;;;;17.70;6.40;;;;;;;16.18;79.74;98864.03;5114524;28;20130;-92
2021/10/05 05:52:36;;;;;;;11.60;5.55;;;;;;;16.23;80.23;98865.53;5113957;28;20032;-93
2021/10/05 05:55:05;;;;;;;14.05;7.00;;;;;;;16.30;80.14;98870.59;5114484;28;20054;-94
2021/10/05 05:57:31;;;;;;;12.38;5.75;;;;;;;16.28;81.53;98873.34;5113796;28;20485;-93
2021/10/05 05:59:58;;;;;;;16.23;6.25;;;;;;;16.27;81.02;98877.00;5113850;28;20081;-93
2021/10/05 06:02:24;;;;;;;15.38;6.80;;;;;;;16.32;80.93;98893.75;5112511;28;20035;-92
2021/10/05 06:04:50;;;;;;;12.23;6.80;;;;;;;16.36;80.72;98891.78;5113445;28;20401;-92
2021/10/05 06:07:16;;;;;;;14.00;6.53;;;;;;;16.36;81.78;98891.78;5113671;28;20063;-92
2021/10/05 06:09:41;;;;;;;10.88;5.90;;;;;;;16.40;82.54;98888.00;5115507;28;20110;-94
2021/10/05 06:12:13;;;;;;;13.73;7.15;;;;;;;16.40;81.27;98885.31;5115010;28;20050;-95
2021/10/05 06:14:40;;;;;;;13.38;6.90;;;;;;;16.46;81.29;98894.88;5115781;28;20051;-93
2021/10/05 06:17:06;;;;;;;14.90;6.75;;;;;;;16.44;82.86;98884.22;5117243;28;20064;-94
2021/10/05 06:19:32;;;;;;;11.93;6.53;;;;;;;16.44;82.17;98884.22;5117718;28;20043;-94
2021/10/05 06:21:58;;;;;;;18.02;7.55;;;;;;;16.54;81.78;98896.22;5115494;28;20040;-95
2021/10/05 06:24:23;;;;;;;13.88;6.57;;;;;;;16.46;80.46;98860.88;5118159;28;20123;-94
2021/10/05 06:26:53;;;;;;;15.90;6.82;;;;;;;16.62;80.37;98875.25;5120691;28;20051;-94
2021/10/05 06:29:26;;;;;;;15.15;7.53;;;;;;;16.62;81.13;98864.50;5120752;28;20434;-95
2021/10/05 06:31:53;;;;;;;16.00;7.60;;;;;;;16.77;81.50;98886.19;5120045;28;20116;-93
2021/10/05 06:34:27;;;;;;;17.52;6.93;;;;;;;16.76;81.33;98881.75;5122966;28;20039;-94
2021/10/05 06:37:05;;;;;;;14.10;7.88;;;;;;;16.67;80.72;98853.53;5109502;28;20130;-94
2021/10/05 06:39:32;;;;;;;18.15;7.95;;;;;;;16.84;79.76;98875.06;5109233;28;20036;-94
2021/10/05 06:41:58;;;;;;;15.48;8.02;;;;;;;16.92;80.09;98881.88;5117130;28;20561;-94
2021/10/05 06:44:25;;;;;;;15.90;7.35;;;;;;;16.96;80.61;98883.47;5115660;28;20055;-94
2021/10/05 06:46:51;;;;;;;15.07;7.40;;;;;;;17.02;80.42;98891.19;5095452;28;20462;-95
2021/10/05 06:49:17;;;;;;;18.38;8.02;;;;;;;16.95;79.62;98885.25;5109903;28;20044;-93
2021/10/05 06:51:43;;;;;;;17.27;7.70;;;;;;;16.96;79.05;98883.47;5116540;28;20416;-93
2021/10/05 06:54:08;;;;;;;15.88;8.00;;;;;;;16.94;79.54;98874.63;5117152;28;20057;-94
2021/10/05 06:56:34;;;;;;;18.65;8.25;;;;;;;16.95;79.56;98876.34;5117241;28;20060;-94
2021/10/05 06:59:00;;;;;;;14.45;8.25;;;;;;;16.92;82.01;98869.31;5120472;28;20047;-94
2021/10/05 07:01:28;;;;;;;16.98;7.85;;;;;;;16.92;81.50;98876.50;5121648;28;20039;-93
2021/10/05 07:03:53;;;;;;;17.85;8.27;;;;;;;16.86;80.28;98866.94;5122015;28;20039;-94
2021/10/05 07:06:20;;;;;;;18.65;8.23;;;;;;;16.91;80.05;98878.31;5123337;28;20143;-95
2021/10/05 07:08:46;;;;;;;17.23;8.27;;;;;;;17.04;82.19;98894.66;5119583;28;20126;-93
2021/10/05 07:11:12;;;;;;;20.90;8.93;;;;;;;17.15;81.11;98904.84;5120023;28;20082;-94
2021/10/05 07:13:38;;;;;;;15.27;7.93;;;;;;;17.13;80.00;98896.91;5120315;28;20032;-94
2021/10/05 07:16:05;;;;;;;16.42;7.82;;;;;;;17.16;79.45;98890.50;5120940;27;20066;-94
2021/10/05 07:18:33;;;;;;;18.70;8.73;;;;;;;17.20;79.02;98884.88;5120508;28;20052;-94
2021/10/05 07:20:59;;;;;;;18.65;8.57;;;;;;;17.47;81.44;98905.00;5120760;28;20036;-94
2021/10/05 07:23:25;;;;;;;18.00;8.23;;;;;;;17.44;79.51;98887.22;5120127;28;20051;-94
2021/10/05 07:25:51;;;;;;;18.70;8.25;;;;;;;17.64;78.30;98911.22;5120237;28;20048;-94
2021/10/05 07:28:17;;;;;;;19.98;8.77;;;;;;;17.76;80.49;98914.19;5120226;28;20093;-93
2021/10/05 07:30:44;;;;;;;16.50;7.88;;;;;;;17.64;79.56;98895.06;5120158;28;20472;-93
2021/10/05 07:33:10;;;;;;;19.33;8.35;;;;;;;17.80;79.91;98915.75;5119784;28;20044;-93
2021/10/05 07:35:38;;;;;;;17.52;7.55;;;;;;;17.86;79.13;98916.31;5119610;28;20093;-94
2021/10/05 07:38:04;;;;;;;17.88;7.78;;;;;;;17.80;78.93;98903.19;5119273;28;20400;-94
2021/10/05 07:40:31;;;;;;;16.65;7.15;;;;;;;17.80;78.42;98902.31;5119159;27;20530;-94
2021/10/05 07:42:59;;;;;;;20.10;8.02;;;;;;;17.79;77.72;98917.59;5119509;28;20127;-93
2021/10/05 07:45:26;;;;;;;20.80;8.02;;;;;;;17.69;78.76;98910.97;5117551;28;20040;-93
2021/10/05 07:47:52;;;;;;;21.20;8.45;;;;;;;17.70;80.19;98933.38;5116715;28;20036;-94
2021/10/05 07:50:19;;;;;;;19.30;7.72;;;;;;;17.68;79.72;98927.19;5117573;28;20447;-94
2021/10/05 07:52:47;;;;;;;19.55;8.20;;;;;;;17.86;79.71;98937.84;5117665;28;20392;-95
2021/10/05 07:55:13;;;;;;;18.08;7.90;;;;;;;17.96;78.83;98935.53;5117454;28;20130;-93
2021/10/05 07:57:39;;;;;;;18.52;7.82;;;;;;;17.94;77.98;98934.75;5117314;28;20074;-94
2021/10/05 08:00:06;;;;;;;18.52;8.25;;;;;;;17.91;77.72;98931.34;5117175;28;20497;-94
2021/10/05 08:02:32;;;;;;;19.02;9.05;;;;;;;18.02;78.07;98939.69;5117028;28;20127;-94
2021/10/05 08:04:58;;;;;;;16.63;7.38;;;;;;;18.05;77.11;98921.56;5117093;28;20063;-95
2021/10/05 08:07:26;;;;;;;15.65;7.50;;;;;;;18.11;77.64;98924.84;5117307;28;20519;-94
2021/10/05 08:09:55;;;;;;;12.23;7.20;;;;;;;18.11;76.88;98924.84;5116899;28;20047;-95
2021/10/05 08:12:21;;;;;;;19.70;7.88;;;;;;;18.33;77.75;98938.03;5116746;28;20091;-93
2021/10/05 08:14:47;;;;;;;14.18;6.78;;;;;;;18.38;75.45;98914.38;5117733;28;20100;-95
2021/10/05 08:17:13;;;;;;;14.93;7.25;;;;;;;18.47;74.76;98914.72;5116966;28;20049;-94
2021/10/05 08:19:39;;;;;;;16.63;7.15;;;;;;;18.57;75.57;98919.59;5117245;28;20455;-95
2021/10/05 08:22:05;;;;;;;16.92;7.30;;;;;;;18.39;75.48;98924.19;5116934;28;20039;-95
2021/10/05 08:24:31;;;;;;;18.73;7.68;;;;;;;18.49;75.50;98917.31;5116760;28;20047;-92
2021/10/05 08:26:58;;;;;;;15.68;7.50;;;;;;;18.59;75.85;98923.06;5117458;28;20057;-96
2021/10/05 08:29:24;;;;;;;21.00;6.80;;;;;;;18.55;75.28;98910.75;5117167;28;20127;-94
2021/10/05 08:31:51;;;;;;;15.20;7.05;;;;;;;18.79;75.14;98928.19;5116897;28;20103;-92
2021/10/05 08:34:18;;;;;;;14.10;6.47;;;;;;;18.77;75.19;98904.97;5116771;28;20048;-92
2021/10/05 08:36:44;;;;;;;13.63;6.50;;;;;;;18.81;75.56;98903.88;5117303;28;20043;-94
2021/10/05 08:39:10;;;;;;;13.48;5.72;;;;;;;18.81;75.14;98891.25;5116781;28;20403;-93
2021/10/05 08:41:37;;;;;;;13.80;6.70;;;;;;;18.98;75.29;98908.28;5117300;28;20036;-96
2021/10/05 08:44:05;;;;;;;16.17;6.32;;;;;;;19.13;75.15;98922.63;5117290;28;20050;-95
2021/10/05 08:46:37;;;;;;;17.30;6.00;;;;;;;19.12;75.40;98904.75;5115166;28;20040;-94
2021/10/05 08:49:03;;;;;;;13.80;6.18;;;;;;;19.20;75.04;98907.84;5116422;28;20040;-94
2021/10/05 08:51:29;;;;;;;15.18;6.68;;;;;;;19.14;75.19;98903.69;5118404;28;20036;-94
2021/10/05 08:53:55;;;;;;;13.27;6.78;;;;;;;19.17;74.73;98902.63;5117147;28;20123;-95
2021/10/05 08:56:20;;;;;;;12.82;5.88;;;;;;;19.20;75.19;98895.22;5117847;28;20040;-94
2021/10/05 08:58:46;;;;;;;14.77;7.00;;;;;;;19.25;75.17;98903.03;5117167;28;20097;-95
2021/10/05 09:01:16;;;;;;;14.00;7.18;;;;;;;19.18;73.66;98896.28;5116892;28;20042;-94
2021/10/05 09:03:47;;;;;;;15.55;6.78;;;;;;;19.43;74.06;98888.44;5119531;28;20051;-96
2021/10/05 09:06:14;;;;;;;16.05;7.20;;;;;;;19.77;73.69;98913.34;5118564;28;20044;-94
2021/10/05 09:08:42;;;;;;;14.32;6.25;;;;;;;19.94;72.07;98903.34;5117164;28;20032;-94
2021/10/05 09:11:09;;;;;;;11.43;5.28;;;;;;;19.81;71.36;98908.63;5115845;28;20044;-95
2021/10/05 09:13:39;;;;;;;12.32;5.50;;;;;;;19.49;72.57;98895.28;5120137;28;20040;-94
2021/10/05 09:16:17;;;;;;;11.43;4.90;;;;;;;19.48;73.50;98921.38;5118736;28;20461;-93
2021/10/05 09:19:02;;;;;;;13.88;5.25;;;;;;;19.72;73.08;98928.09;5119002;28;20054;-94
2021/10/05 09:21:30;;;;;;;12.68;5.22;;;;;;;19.67;73.27;98901.38;5118474;28;20408;-94
2021/10/05 09:23:59;;;;;;;13.07;5.17;;;;;;;20.01;71.24;98902.81;5119957;28;20519;-93
2021/10/05 09:26:40;;;;;;;13.82;5.38;;;;;;;20.11;71.55;98897.72;5118711;28;20280;-94
2021/10/05 09:29:15;;;;;;;14.15;5.15;;;;;;;20.48;70.45;98898.91;5121382;28;20127;-95
2021/10/05 09:31:52;;;;;;;10.40;5.05;;;;;;;20.69;69.77;98885.84;5104982;28;20024;-95
2021/10/05 09:34:18;;;;;;;12.20;5.35;;;;;;;20.91;68.91;98900.63;5122254;28;20526;-94
2021/10/05 09:36:44;;;;;;;12.88;4.53;;;;;;;21.19;67.49;98882.50;5123882;28;20050;-95
2021/10/05 09:39:11;;;;;;;11.35;4.70;;;;;;;21.10;67.54;98871.34;5121778;28;20047;-96
2021/10/05 09:41:37;;;;;;;11.50;5.18;;;;;;;21.18;67.22;98883.47;5123552;28;20031;-96
2021/10/05 09:44:07;;;;;;;14.10;4.67;;;;;;;20.90;67.72;98885.34;5125975;28;20042;-96
2021/10/05 09:46:35;;;;;;;11.13;4.10;;;;;;;21.40;66.64;98864.78;5127804;28;20054;-95
2021/10/05 09:52:09;;;;;;;8.80;3.47;;;;;;;22.59;60.80;98853.56;5126153;27;20377;-96
2021/10/05 09:54:35;;;;;;;10.85;3.92;;;;;;;22.49;59.08;98848.84;5123125;28;20052;-94
2021/10/05 09:57:01;;;;;;;11.77;3.53;;;;;;;22.56;59.33;98836.56;5118143;28;20044;-96
2021/10/05 09:59:29;;;;;;;9.43;3.53;;;;;;;22.12;60.60;98839.81;5120027;28;20099;-95
2021/10/05 10:01:56;;;;;;;10.38;3.63;;;;;;;22.54;59.85;98846.66;5120840;28;20057;-95
2021/10/05 10:04:26;;;;;;;9.05;3.40;;;;;;;22.61;59.49;98828.06;5118982;28;20043;-95
2021/10/05 10:06:53;;;;;;;8.07;3.70;;;;;;;22.59;59.21;98842.72;5121462;28;20075;-96
2021/10/05 10:09:24;;;;;;;8.57;3.30;;;;;;;22.54;57.89;98872.88;5119477;28;20173;-95
2021/10/05 10:11:51;;;;;;;6.43;3.30;;;;;;;22.21;59.71;98849.13;5120138;28;20054;-95
2021/10/05 10:14:19;;;;;;;12.65;2.97;;;;;;;22.15;57.03;98855.84;5118181;28;20040;-95
2021/10/05 10:16:48;;;;;;;8.43;3.33;;;;;;;22.03;58.97;98843.22;5120204;28;20131;-93
2021/10/05 10:19:26;;;;;;;7.40;3.03;;;;;;;21.92;58.38;98836.75;5119782;28;20051;-96
2021/10/05 10:21:51;;;;;;;10.93;3.45;;;;;;;21.65;59.93;98842.31;5118106;28;20052;-94
2021/10/05 10:24:21;;;;;;;7.72;3.35;;;;;;;22.02;59.00;98845.06;5118748;28;20040;-95
2021/10/05 10:26:55;;;;;;;8.00;3.35;;;;;;;22.20;58.30;98867.22;5119172;28;20059;-96
2021/10/05 10:29:26;;;;;;;15.45;3.90;;;;;;;22.14;58.37;98848.69;5118868;28;20043;-95
2021/10/05 10:31:52;;;;;;;11.02;4.07;;;;;;;21.97;60.62;98852.66;5118877;28;20040;-94
2021/10/05 10:34:43;;;;;;;9.05;3.22;;;;;;;22.23;58.68;98871.56;5117658;28;20085;-95
2021/10/05 10:37:11;;;;;;;9.05;3.35;;;;;;;22.34;58.62;98861.69;5117696;28;20056;-95
2021/10/05 10:39:39;;;;;;;6.45;3.38;;;;;;;22.30;58.58;98857.47;5118716;28;20048;-95
2021/10/05 10:42:09;;;;;;;8.37;3.17;;;;;;;22.33;58.36;98846.38;5119306;28;20057;-96
2021/10/05 10:44:38;;;;;;;7.18;3.15;;;;;;;22.77;58.14;98836.78;5119771;28;20055;-95
2021/10/05 10:47:06;;;;;;;7.05;3.28;;;;;;;22.96;57.85;98832.63;5119212;28;20044;-94
2021/10/05 10:49:32;;;;;;;;;;;;;;;22.63;57.26;98855.94;5117683;28;20040;-96
2021/10/05 10:51:58;;;;;;;9.35;3.30;;;;;;;22.08;58.16;98847.31;5117628;28;19972;-94
2021/10/05 10:54:26;;;;;;;4.72;2.75;;;;;;;22.38;57.36;98816.28;5117931;28;20055;-95
2021/10/05 10:56:59;;;;;;;10.50;3.20;;;;;;;22.81;56.84;98845.53;5118130;28;20054;-95
2021/10/05 10:59:28;;;;;;;11.60;3.40;;;;;;;22.76;56.25;98843.16;5118436;28;20062;-96
2021/10/05 11:01:58;;;;;;;6.90;3.35;;;;;;;22.44;57.85;98820.34;5112906;28;20143;-96
2021/10/05 11:04:24;;;;;;;12.57;3.40;;;;;;;22.48;57.56;98820.00;5105908;28;20044;-95
2021/10/05 11:06:53;;;;;;;6.22;3.30;;;;;;;22.88;57.29;98837.78;5106175;28;20072;-96
2021/10/05 11:09:20;;;;;;;10.20;3.47;;;;;;;22.82;57.29;98830.16;5105684;28;20065;-95
2021/10/05 11:14:52;;;;;;;7.95;3.67;;;;;;;22.73;57.33;98827.16;5135388;27;20383;-95
2021/10/05 11:17:18;;;;;;;8.63;3.37;;;;;;;22.75;57.31;98856.88;5135306;28;20047;-91
2021/10/05 11:19:44;;;;;;;7.90;3.47;;;;;;;22.54;58.27;98846.66;5135169;28;20050;-94
2021/10/05 11:22:13;;;;;;;6.55;3.30;;;;;;;22.33;58.62;98856.38;5137454;27;20050;-94
2021/10/05 11:24:41;;;;;;;8.18;3.58;;;;;;;22.32;58.87;98850.09;5136879;27;20114;-94
2021/10/05 11:27:09;;;;;;;9.50;3.47;;;;;;;22.26;59.81;98853.25;5137507;28;20131;-94
2021/10/05 11:29:36;;;;;;;8.82;3.65;;;;;;;21.93;60.52;98841.19;5138535;28;20130;-92
2021/10/05 11:32:06;;;;;;;9.48;3.90;;;;;;;21.90;61.54;98840.53;5133617;28;20039;-93
2021/10/05 11:34:35;;;;;;;8.02;4.05;;;;;;;21.83;62.35;98841.94;5134236;28;20039;-93
2021/10/05 11:37:03;;;;;;;8.43;4.28;;;;;;;21.62;63.51;98857.88;5137016;27;20039;-95